Time;durP1;ratioP1;P1;durP2;ratioP2;P2;SDS_P1;SDS_P2;PMS_P1;PMS_P2;Temp;Humidity;BMP_temperature;BMP_pressure;BME280_temperature;BME280_humidity;BME280_pressure;Samples;Min_cycle;Max_cycle;Signal;HPM_P1;HPM_P2
2022/01/01 00:02:20;;;;;;;6.80;3.33;;;;;;;-145.06;24.23;60892.56;4857855;28;20037;-87
2022/01/01 00:05:01;;;;;;;5.32;3.00;;;;;;;187.52;24.23;60892.56;4866682;28;20033;-88
2022/01/01 00:07:41;;;;;;;4.88;3.10;;;;;;;-145.06;24.23;60892.56;4875158;28;20045;-87
2022/01/01 00:10:21;;;;;;;4.95;3.08;;;;;;;-145.06;24.23;60892.56;4853572;28;20612;-88
2022/01/01 00:13:00;;;;;;;5.68;3.83;;;;;;;-145.06;24.23;60892.56;4861576;28;20597;-87
2022/01/01 00:15:39;;;;;;;5.37;3.30;;;;;;;-145.06;24.23;60892.56;4869998;28;20112;-88
2022/01/01 00:18:21;;;;;;;6.05;3.42;;;;;;;-145.06;24.23;60892.56;4849115;28;20960;-87
2022/01/01 00:21:00;;;;;;;4.75;3.15;;;;;;;-145.06;24.23;60892.56;4852831;28;20032;-88
2022/01/01 00:23:39;;;;;;;3.97;2.83;;;;;;;-145.06;24.23;60892.56;4855081;28;20028;-88
2022/01/01 00:26:20;;;;;;;4.45;3.15;;;;;;;-145.06;24.23;60892.56;4851597;28;20370;-87
2022/01/01 00:28:59;;;;;;;4.68;3.00;;;;;;;-145.06;24.23;60892.56;4852424;28;20029;-87
2022/01/01 00:31:38;;;;;;;4.30;2.80;;;;;;;-145.06;24.23;60892.56;4853509;28;20029;-88
2022/01/01 00:34:17;;;;;;;5.72;2.90;;;;;;;-145.06;24.23;60892.56;4866417;28;20123;-87
2022/01/01 00:36:56;;;;;;;4.10;2.67;;;;;;;-145.06;24.23;60892.56;4868048;28;20037;-88
2022/01/01 00:39:35;;;;;;;4.28;2.83;;;;;;;-145.06;24.23;60892.56;4860667;28;20041;-87
2022/01/01 00:42:14;;;;;;;5.33;2.60;;;;;;;14.40;24.23;60892.56;4869371;28;20021;-87
2022/01/01 00:44:53;;;;;;;3.93;2.43;;;;;;;-145.06;24.23;60892.56;4854385;28;20036;-88
2022/01/01 00:47:35;;;;;;;5.20;3.03;;;;;;;-145.06;24.23;60892.56;4860235;28;20310;-89
2022/01/01 00:50:14;;;;;;;2.83;2.10;;;;;;;-145.06;24.23;60892.56;4857747;28;20478;-88
2022/01/01 00:52:54;;;;;;;3.05;2.10;;;;;;;-145.06;24.23;60892.56;4858845;28;20029;-88
2022/01/01 00:55:33;;;;;;;3.30;1.77;;;;;;;-145.06;24.23;60892.56;4855289;28;20041;-88
2022/01/01 00:58:12;;;;;;;3.90;2.25;;;;;;;-145.06;24.23;60892.56;4855745;28;20116;-88
2022/01/01 01:00:57;;;;;;;2.58;1.75;;;;;;;187.52;24.23;60892.56;4852826;28;20033;-88
2022/01/01 01:03:36;;;;;;;2.97;1.90;;;;;;;-145.06;24.23;60892.56;4853079;28;20034;-88
2022/01/01 01:06:18;;;;;;;3.27;1.77;;;;;;;14.39;24.23;60892.56;4851900;28;20237;-87
2022/01/01 01:08:59;;;;;;;4.75;2.40;;;;;;;-145.06;24.23;60892.56;4850834;28;20041;-88
2022/01/01 01:11:43;;;;;;;4.35;2.33;;;;;;;-145.06;24.23;60892.56;4849657;28;20038;-87
2022/01/01 01:14:24;;;;;;;2.70;1.88;;;;;;;14.40;24.23;60892.56;4864068;28;20040;-89
2022/01/01 01:17:03;;;;;;;2.88;2.00;;;;;;;-145.06;24.23;60892.56;4870847;28;20033;-89
2022/01/01 01:19:42;;;;;;;3.83;2.47;;;;;;;14.58;24.23;60892.56;4855545;28;20025;-88
2022/01/01 01:22:21;;;;;;;3.45;1.95;;;;;;;-145.06;24.23;60892.56;4851611;28;20467;-88
2022/01/01 01:25:00;;;;;;;3.25;2.13;;;;;;;-145.06;24.23;60892.56;4862814;28;20040;-87
2022/01/01 01:27:40;;;;;;;5.07;2.55;;;;;;;14.42;24.23;60892.56;4857571;28;20072;-88
2022/01/01 01:30:19;;;;;;;2.75;1.90;;;;;;;-145.06;24.23;60892.56;4853997;28;20072;-88
2022/01/01 01:32:58;;;;;;;4.13;2.15;;;;;;;-145.06;24.23;60892.56;4851777;28;20064;-87
2022/01/01 01:35:37;;;;;;;3.13;2.10;;;;;;;-145.06;24.23;60892.56;4851450;28;20069;-88
2022/01/01 01:38:16;;;;;;;;;;;;;;;-145.06;24.23;60892.56;4867201;28;20434;-88
2022/01/01 01:40:55;;;;;;;2.95;1.73;;;;;;;-145.06;24.23;60892.56;4848742;28;19921;-87
2022/01/01 01:43:36;;;;;;;2.33;1.55;;;;;;;14.42;24.23;60892.56;4851839;28;20115;-88
2022/01/01 01:46:14;;;;;;;2.30;1.48;;;;;;;-145.06;24.23;60892.56;4850377;28;20485;-88
2022/01/01 01:48:54;;;;;;;3.15;2.00;;;;;;;14.36;24.23;60892.56;4870537;28;20037;-88
2022/01/01 01:51:35;;;;;;;3.42;1.50;;;;;;;-145.06;24.23;60892.56;4853775;28;20041;-87
2022/01/01 01:54:14;;;;;;;2.28;1.55;;;;;;;-145.06;24.23;60892.56;4858186;28;20104;-88
2022/01/01 01:56:52;;;;;;;2.53;1.50;;;;;;;-145.06;24.23;60892.56;4848142;28;20029;-89
2022/01/01 01:59:31;;;;;;;2.55;1.50;;;;;;;-145.06;24.23;60892.56;4855355;28;20033;-88
2022/01/01 02:02:11;;;;;;;2.17;1.42;;;;;;;-145.06;24.23;60892.56;4848629;28;20577;-88
2022/01/01 02:04:50;;;;;;;2.67;1.45;;;;;;;14.39;24.23;104794.97;4873322;28;20128;-89
2022/01/01 02:07:29;;;;;;;1.73;1.20;;;;;;;-145.06;24.23;60892.56;4864794;28;20044;-88
2022/01/01 02:10:09;;;;;;;1.85;1.30;;;;;;;-145.06;24.23;60892.56;4866989;28;20033;-88
2022/01/01 02:12:53;;;;;;;2.72;1.40;;;;;;;-145.06;24.23;60892.56;4871211;28;20040;-89
2022/01/01 02:15:59;;;;;;;3.65;1.52;;;;;;;-145.06;24.23;60892.56;4884213;28;20025;-88
2022/01/01 02:18:44;;;;;;;1.75;1.05;;;;;;;-145.06;24.23;60892.56;4854070;28;20387;-87
2022/01/01 02:21:24;;;;;;;2.30;1.48;;;;;;;-145.06;24.23;60892.56;4860187;28;20116;-89
2022/01/01 02:24:05;;;;;;;2.97;1.45;;;;;;;-145.06;24.23;60892.56;4858656;28;20033;-87
2022/01/01 02:26:44;;;;;;;1.40;1.20;;;;;;;-145.06;24.23;60892.56;4858850;28;20079;-88
2022/01/01 02:29:23;;;;;;;2.10;1.20;;;;;;;14.38;24.23;60892.56;4858271;28;20478;-87
2022/01/01 02:32:02;;;;;;;2.35;1.13;;;;;;;-145.06;24.23;60892.56;4854947;28;20033;-88
2022/01/01 02:34:45;;;;;;;1.88;1.13;;;;;;;-145.06;24.23;60892.56;4865718;28;20029;-89
2022/01/01 02:37:24;;;;;;;1.15;0.90;;;;;;;-145.06;24.23;60892.56;4862300;28;20041;-87
2022/01/01 02:40:03;;;;;;;1.60;1.00;;;;;;;-145.06;24.23;60892.56;4847486;28;20037;-88
2022/01/01 02:42:43;;;;;;;2.40;1.20;;;;;;;-145.06;24.23;60892.56;4847654;28;20033;-87
2022/01/01 02:45:22;;;;;;;1.30;0.90;;;;;;;-145.06;24.23;60892.56;4844921;28;20450;-88
2022/01/01 02:48:01;;;;;;;1.58;1.08;;;;;;;-145.06;24.23;60892.56;4857181;28;20112;-88
2022/01/01 02:50:40;;;;;;;2.13;1.10;;;;;;;14.32;24.23;60892.56;4856384;28;20033;-88
2022/01/01 02:53:18;;;;;;;1.93;1.10;;;;;;;-145.06;24.23;60892.56;4858767;28;20033;-89
2022/01/01 02:56:00;;;;;;;2.80;1.10;;;;;;;14.34;24.23;60892.56;4862322;28;20116;-88
2022/01/01 02:58:40;;;;;;;1.13;0.90;;;;;;;14.28;24.23;60892.56;4870594;28;20610;-87
2022/01/01 03:01:19;;;;;;;1.67;1.00;;;;;;;14.28;24.23;60892.56;4854102;28;20662;-89
2022/01/01 03:03:58;;;;;;;1.88;1.00;;;;;;;14.29;24.23;60892.56;4875424;28;20112;-88
2022/01/01 03:06:37;;;;;;;1.53;0.93;;;;;;;14.34;24.23;60892.56;4853027;28;20481;-88
2022/01/01 03:09:16;;;;;;;4.00;1.30;;;;;;;-145.06;24.23;60892.56;4857906;28;20693;-89
2022/01/01 03:11:55;;;;;;;1.95;1.00;;;;;;;-145.06;24.23;60892.56;4870854;28;20534;-87
2022/01/01 03:14:35;;;;;;;2.30;0.90;;;;;;;14.31;24.23;60892.56;4860539;28;20045;-89
2022/01/01 03:17:14;;;;;;;1.58;0.77;;;;;;;14.29;24.23;60892.56;4869168;28;20478;-88
2022/01/01 03:19:53;;;;;;;4.10;0.70;;;;;;;14.34;24.23;60892.56;4869918;28;20040;-88
2022/01/01 03:22:35;;;;;;;2.85;0.93;;;;;;;14.29;24.23;60892.56;4854294;28;20367;-87
2022/01/01 03:25:14;;;;;;;2.38;1.17;;;;;;;-145.06;24.23;60892.56;4875605;28;20108;-88
2022/01/01 03:27:53;;;;;;;2.67;0.90;;;;;;;-145.06;24.23;60892.56;4855001;28;20032;-88
2022/01/01 03:30:32;;;;;;;2.33;0.97;;;;;;;-145.06;24.23;60892.56;4855889;28;20037;-87
2022/01/01 03:33:11;;;;;;;;;;;;;;;-145.06;24.23;60892.56;4848000;28;20283;-87
2022/01/01 03:35:51;;;;;;;1.93;0.80;;;;;;;-145.06;24.23;60892.56;4854830;28;19908;-88
2022/01/01 03:38:30;;;;;;;0.98;0.70;;;;;;;14.33;24.23;60892.56;4860072;28;20283;-88
2022/01/01 03:41:09;;;;;;;1.92;0.90;;;;;;;-145.06;24.23;60892.56;4871501;28;20041;-89
2022/01/01 03:43:49;;;;;;;2.47;1.40;;;;;;;-145.06;24.23;60892.56;4854576;28;20028;-89
2022/01/01 03:46:28;;;;;;;1.77;0.88;;;;;;;14.27;24.23;60892.56;4870106;28;20680;-88
2022/01/01 03:49:07;;;;;;;1.60;1.00;;;;;;;14.58;24.23;60892.56;4852889;28;20021;-88
2022/01/01 03:51:46;;;;;;;1.98;1.15;;;;;;;-145.06;24.23;60892.56;4859066;28;20485;-88
2022/01/01 03:54:25;;;;;;;2.65;1.00;;;;;;;-145.06;24.23;60892.56;4871801;28;20112;-88
2022/01/01 03:57:04;;;;;;;3.30;1.40;;;;;;;-145.06;24.23;60892.56;4873749;28;20033;-87
2022/01/01 03:59:43;;;;;;;2.45;1.00;;;;;;;14.19;24.23;60892.56;4874770;28;20029;-88
2022/01/01 04:02:22;;;;;;;1.40;0.80;;;;;;;-145.06;24.23;60892.56;4853305;28;20033;-87
2022/01/01 04:05:01;;;;;;;1.70;0.90;;;;;;;-145.06;24.23;60892.56;4860592;28;20426;-88
2022/01/01 04:07:40;;;;;;;3.42;1.10;;;;;;;14.18;24.23;60892.56;4871273;28;20367;-88
2022/01/01 04:10:19;;;;;;;1.90;0.82;;;;;;;-145.06;24.23;60892.56;4862908;28;20045;-87
2022/01/01 04:12:59;;;;;;;2.30;1.00;;;;;;;-145.06;24.23;60892.56;4876974;28;20033;-87
2022/01/01 04:15:41;;;;;;;2.50;0.80;;;;;;;-145.06;24.23;60892.56;4872140;28;20407;-87
2022/01/01 04:18:38;;;;;;;1.77;0.90;;;;;;;-145.06;24.23;60892.56;4859538;28;20041;-87
2022/01/01 04:21:16;;;;;;;1.50;0.70;;;;;;;-145.06;24.23;60892.56;4859942;28;20025;-89
2022/01/01 04:23:55;;;;;;;3.80;1.17;;;;;;;-145.06;24.23;60892.56;4841554;28;20029;-88
2022/01/01 04:26:34;;;;;;;2.73;1.13;;;;;;;-145.06;24.23;60892.56;4872663;28;20275;-88
2022/01/01 04:29:13;;;;;;;1.33;0.82;;;;;;;-145.06;24.23;60892.56;4857787;28;20295;-88
2022/01/01 04:31:53;;;;;;;1.38;0.82;;;;;;;-145.06;24.23;60892.56;4859162;28;20482;-88
2022/01/01 04:34:32;;;;;;;2.22;0.90;;;;;;;-145.06;24.23;60892.56;4870828;28;20116;-88
2022/01/01 04:37:13;;;;;;;2.50;1.10;;;;;;;-145.06;24.23;60892.56;4860810;28;20116;-88
2022/01/01 04:39:57;;;;;;;1.98;0.90;;;;;;;-145.06;24.23;60892.56;4852635;28;20117;-88
2022/01/01 04:42:36;;;;;;;1.10;0.70;;;;;;;14.58;24.23;60892.56;4867654;28;20036;-87
2022/01/01 04:45:15;;;;;;;1.92;1.15;;;;;;;14.18;24.23;60892.56;4855943;28;20032;-89
2022/01/01 04:47:54;;;;;;;1.98;0.95;;;;;;;-145.06;24.23;60892.56;4864953;28;20633;-88
2022/01/01 04:50:33;;;;;;;3.30;0.85;;;;;;;-145.06;24.23;60892.56;4855784;28;20033;-88
2022/01/01 04:53:16;;;;;;;3.50;0.70;;;;;;;14.58;24.23;60892.56;4841613;28;20038;-88
2022/01/01 04:55:55;;;;;;;1.70;0.60;;;;;;;14.26;24.23;60892.56;4858757;28;20486;-87
2022/01/01 04:58:35;;;;;;;2.22;0.80;;;;;;;-145.06;24.23;60892.56;4850354;28;20061;-87
2022/01/01 05:01:14;;;;;;;1.58;0.73;;;;;;;-145.06;24.23;60892.56;4850567;28;20044;-88
2022/01/01 05:03:55;;;;;;;0.57;0.50;;;;;;;-145.06;24.23;60892.56;4848992;28;20021;-87
2022/01/01 05:06:34;;;;;;;2.25;0.90;;;;;;;-145.06;24.23;60892.56;4856977;28;20376;-88
2022/01/01 05:09:13;;;;;;;2.47;1.10;;;;;;;15.88;24.23;60892.56;4850578;28;20112;-88
2022/01/01 05:11:52;;;;;;;2.43;0.80;;;;;;;-145.06;24.23;60892.56;4858782;28;20357;-87
2022/01/01 05:14:31;;;;;;;2.72;0.70;;;;;;;-145.06;24.23;60892.56;4873438;28;20125;-87
2022/01/01 05:17:12;;;;;;;2.17;0.65;;;;;;;-145.06;24.23;60892.56;4854870;28;20029;-88
2022/01/01 05:19:51;;;;;;;1.63;0.70;;;;;;;-145.06;24.23;60892.56;4869646;28;20104;-88
2022/01/01 05:22:30;;;;;;;2.47;0.70;;;;;;;14.58;24.23;60892.56;4857203;28;20463;-89
2022/01/01 05:25:09;;;;;;;1.23;0.63;;;;;;;-145.06;24.23;60892.56;4858847;28;20052;-88
2022/01/01 05:27:48;;;;;;;2.58;0.80;;;;;;;-145.06;24.23;60892.56;4859489;28;20029;-88
2022/01/01 05:30:27;;;;;;;1.95;0.85;;;;;;;-145.06;24.23;60892.56;4853945;28;20041;-87
2022/01/01 05:33:09;;;;;;;2.35;0.95;;;;;;;14.26;24.23;60892.56;4857269;28;20033;-88
2022/01/01 05:35:48;;;;;;;1.25;0.80;;;;;;;-145.06;24.23;60892.56;4869207;28;20487;-88
2022/01/01 05:38:27;;;;;;;1.85;0.75;;;;;;;15.88;24.23;60892.56;4849925;28;20072;-87
2022/01/01 05:41:06;;;;;;;1.98;0.70;;;;;;;14.58;24.23;60892.56;4865638;28;20041;-89
2022/01/01 05:43:45;;;;;;;1.30;0.70;;;;;;;-145.06;24.23;60892.56;4858110;28;20033;-88
2022/01/01 05:46:24;;;;;;;1.40;0.80;;;;;;;-145.06;24.23;60892.56;4854434;28;20376;-88
2022/01/01 05:49:03;;;;;;;0.93;0.53;;;;;;;-145.06;24.23;60892.56;4853887;28;20116;-87
2022/01/01 05:51:42;;;;;;;2.08;0.70;;;;;;;15.88;24.23;60892.56;4850491;28;20622;-88
2022/01/01 05:54:20;;;;;;;1.45;0.73;;;;;;;-145.06;24.23;60892.56;4850472;28;20060;-89
2022/01/01 05:57:00;;;;;;;2.77;0.80;;;;;;;-145.06;24.23;60892.56;4844961;28;20037;-87
2022/01/01 05:59:41;;;;;;;2.38;0.60;;;;;;;-145.06;24.23;60892.56;4873540;28;20275;-89
2022/01/01 06:02:20;;;;;;;0.88;0.70;;;;;;;-145.06;24.23;60892.56;4849688;28;20021;-88
2022/01/01 06:05:00;;;;;;;1.40;0.70;;;;;;;-145.06;24.23;60892.56;4871887;28;20056;-87
2022/01/01 06:07:39;;;;;;;2.20;0.80;;;;;;;15.88;24.23;60892.56;4869703;28;20275;-88
2022/01/01 06:10:18;;;;;;;0.77;0.63;;;;;;;14.58;24.23;60892.56;4856970;28;20029;-87
2022/01/01 06:12:58;;;;;;;1.08;0.70;;;;;;;21.08;24.23;60892.56;4857438;28;20076;-88
2022/01/01 06:15:37;;;;;;;1.05;0.63;;;;;;;-145.06;24.23;60892.56;4842736;28;20073;-88
2022/01/01 06:18:16;;;;;;;3.30;0.73;;;;;;;-145.06;24.23;60892.56;4871258;28;20033;-88
2022/01/01 06:20:55;;;;;;;0.70;0.50;;;;;;;14.58;24.23;60892.56;4870922;28;20811;-88
2022/01/01 06:23:37;;;;;;;1.05;0.60;;;;;;;-145.06;24.23;60892.56;4850151;28;20271;-88
2022/01/01 06:26:16;;;;;;;0.98;0.70;;;;;;;-145.06;24.23;60892.56;4868669;28;20045;-87
2022/01/01 06:28:55;;;;;;;0.80;0.60;;;;;;;-145.06;24.23;60892.56;4848070;28;20443;-87
2022/01/01 06:31:34;;;;;;;1.80;0.50;;;;;;;-145.06;24.23;60892.56;4854431;28;20533;-87
2022/01/01 06:34:13;;;;;;;3.63;0.77;;;;;;;-145.06;24.23;60892.56;4870002;28;20284;-89
2022/01/01 06:36:52;;;;;;;1.58;0.60;;;;;;;-145.06;24.23;60892.56;4851312;28;20275;-88
2022/01/01 06:39:31;;;;;;;0.53;0.40;;;;;;;-145.06;24.23;60892.56;4872934;28;20645;-89
2022/01/01 06:42:09;;;;;;;1.58;0.70;;;;;;;-145.06;24.23;60892.56;4852037;28;20311;-87
2022/01/01 06:44:54;;;;;;;2.45;0.80;;;;;;;-145.06;24.23;60892.56;4849754;28;20069;-88
2022/01/01 06:47:33;;;;;;;1.42;0.70;;;;;;;-145.06;24.23;60892.56;4849939;28;20073;-87
2022/01/01 06:50:12;;;;;;;0.98;0.70;;;;;;;-145.06;24.23;60892.56;4868595;28;20037;-88
2022/01/01 06:52:51;;;;;;;0.60;0.50;;;;;;;-145.06;24.23;60892.56;4856182;28;20037;-87
2022/01/01 06:55:30;;;;;;;1.08;0.70;;;;;;;15.88;24.23;60892.56;4862585;28;20025;-89
2022/01/01 06:58:09;;;;;;;1.45;0.70;;;;;;;14.58;24.23;60892.56;4876758;28;20037;-88
2022/01/01 07:00:48;;;;;;;0.73;0.55;;;;;;;-145.06;24.23;60892.56;4859624;28;20041;-88
2022/01/01 07:03:27;;;;;;;1.23;0.57;;;;;;;14.58;24.23;60892.56;4852708;28;20434;-88
2022/01/01 07:06:06;;;;;;;0.63;0.50;;;;;;;-145.06;24.23;60892.56;4877111;28;20041;-88
2022/01/01 07:08:45;;;;;;;0.70;0.57;;;;;;;-145.06;24.23;60892.56;4876733;28;20033;-88
2022/01/01 07:11:24;;;;;;;0.68;0.50;;;;;;;-145.06;24.23;60892.56;4874927;28;20045;-88
2022/01/01 07:14:03;;;;;;;0.77;0.55;;;;;;;14.58;24.23;60892.56;4857933;28;20380;-89
2022/01/01 07:16:42;;;;;;;1.58;0.60;;;;;;;-145.06;24.23;60892.56;4858067;28;20033;-87
2022/01/01 07:19:21;;;;;;;1.33;0.60;;;;;;;-145.06;24.23;60892.56;4854665;28;20104;-87
2022/01/01 07:22:00;;;;;;;0.82;0.50;;;;;;;-145.06;24.23;60892.56;4876405;28;20111;-86
2022/01/01 07:24:39;;;;;;;2.47;0.57;;;;;;;-145.06;24.23;60892.56;4852567;28;20029;-88
2022/01/01 07:27:20;;;;;;;1.02;0.60;;;;;;;-145.06;24.23;60892.56;4871229;28;20116;-87
2022/01/01 07:29:59;;;;;;;0.80;0.50;;;;;;;-145.06;24.23;60892.56;4859114;28;20033;-89
2022/01/01 07:32:44;;;;;;;1.42;0.65;;;;;;;-145.06;24.23;60892.56;4874236;28;20617;-88
2022/01/01 07:35:23;;;;;;;0.70;0.47;;;;;;;-145.06;24.23;60892.56;4865107;28;20115;-88
2022/01/01 07:38:02;;;;;;;0.93;0.50;;;;;;;187.52;24.23;60892.56;4851330;28;20467;-88
2022/01/01 07:40:41;;;;;;;0.65;0.50;;;;;;;-145.06;24.23;60892.56;4875312;28;20037;-88
2022/01/01 07:43:20;;;;;;;0.88;0.63;;;;;;;-145.06;24.23;60892.56;4844206;28;20037;-88
2022/01/01 07:45:59;;;;;;;1.17;0.50;;;;;;;15.88;24.23;60892.56;4873442;28;20037;-87
2022/01/01 07:48:38;;;;;;;0.30;0.30;;;;;;;-145.06;24.23;60892.56;4851952;28;20029;-88
2022/01/01 07:51:17;;;;;;;1.00;0.60;;;;;;;-145.06;24.23;60892.56;4857833;28;20625;-88
2022/01/01 07:53:56;;;;;;;0.82;0.60;;;;;;;15.88;24.23;60892.56;4870232;28;20041;-88
2022/01/01 07:56:35;;;;;;;0.80;0.50;;;;;;;-145.06;24.23;60892.56;4856326;28;20119;-88
2022/01/01 07:59:14;;;;;;;1.23;0.60;;;;;;;-145.06;24.23;60892.56;4851120;28;20030;-87
2022/01/01 08:01:53;;;;;;;0.73;0.50;;;;;;;14.58;24.23;60892.56;4854610;28;20033;-88
2022/01/01 08:04:32;;;;;;;0.87;0.63;;;;;;;-145.06;24.23;60892.56;4872944;28;20934;-89
2022/01/01 08:07:11;;;;;;;1.20;0.50;;;;;;;-145.06;24.23;60892.56;4874116;28;20828;-89
2022/01/01 08:09:50;;;;;;;1.50;0.60;;;;;;;-145.06;24.23;60892.56;4860357;28;20483;-88
2022/01/01 08:12:29;;;;;;;0.60;0.40;;;;;;;187.52;24.23;60892.56;4871113;28;20037;-88
2022/01/01 08:15:08;;;;;;;1.53;0.60;;;;;;;-145.06;24.23;60892.56;4854635;28;20029;-88
2022/01/01 08:17:47;;;;;;;1.65;0.60;;;;;;;-145.06;24.23;60892.56;4856361;28;20036;-88
2022/01/01 08:20:26;;;;;;;1.52;0.60;;;;;;;-145.06;24.23;60892.56;4843880;28;20045;-88
2022/01/01 08:23:05;;;;;;;1.52;0.75;;;;;;;-145.06;24.23;60892.56;4867951;28;20020;-89
2022/01/01 08:25:44;;;;;;;1.13;0.70;;;;;;;-145.06;24.23;60892.56;4852491;28;20033;-88
2022/01/01 08:28:23;;;;;;;2.00;0.83;;;;;;;-145.06;24.23;60892.56;4856647;28;20036;-88
2022/01/01 08:31:02;;;;;;;0.90;0.70;;;;;;;-145.06;24.23;60892.56;4868563;28;20021;-88
2022/01/01 08:33:41;;;;;;;1.05;0.52;;;;;;;-145.06;24.23;60892.56;4854955;28;20375;-88
2022/01/01 08:36:21;;;;;;;1.83;0.77;;;;;;;-145.06;24.23;60892.56;4864465;28;20057;-86
2022/01/01 08:38:59;;;;;;;0.80;0.70;;;;;;;-145.06;24.23;60892.56;4861644;28;20379;-88
2022/01/01 08:41:38;;;;;;;1.05;0.60;;;;;;;-145.06;24.23;60892.56;4867120;28;20028;-88
2022/01/01 08:44:17;;;;;;;1.03;0.73;;;;;;;-145.06;24.23;60892.56;4859697;28;20045;-89
2022/01/01 08:46:57;;;;;;;0.60;0.60;;;;;;;-145.06;24.23;60892.56;4856721;28;20044;-89
2022/01/01 08:49:36;;;;;;;1.02;0.60;;;;;;;-145.06;24.23;60892.56;4857731;28;20033;-89
2022/01/01 08:52:15;;;;;;;0.90;0.70;;;;;;;-145.06;24.23;60892.56;4862648;28;20042;-89
2022/01/01 08:54:59;;;;;;;0.93;0.70;;;;;;;-145.06;24.23;60892.56;4859243;28;20036;-90
2022/01/01 08:57:38;;;;;;;1.35;0.77;;;;;;;-145.06;24.23;60892.56;4852547;28;20538;-87
2022/01/01 09:00:18;;;;;;;0.73;0.60;;;;;;;-145.06;24.23;60892.56;4864992;28;22126;-88
2022/01/01 09:02:56;;;;;;;1.50;0.68;;;;;;;-145.06;24.23;60892.56;4849369;28;20037;-87
2022/01/01 09:05:35;;;;;;;1.25;0.70;;;;;;;-145.06;24.23;60892.56;4857494;28;20024;-87
2022/01/01 09:08:14;;;;;;;1.80;0.80;;;;;;;-145.06;24.23;60892.56;4857944;28;20029;-88
2022/01/01 09:10:53;;;;;;;1.97;0.70;;;;;;;-145.06;24.23;60892.56;4857094;28;20037;-88
2022/01/01 09:13:32;;;;;;;1.40;0.73;;;;;;;-145.06;24.23;60892.56;4859264;28;20033;-90
2022/01/01 09:16:14;;;;;;;1.10;0.70;;;;;;;-145.06;24.23;60892.56;4863051;28;20913;-88
2022/01/01 09:18:52;;;;;;;2.05;0.90;;;;;;;-145.06;24.23;60892.56;4845906;28;20033;-90
2022/01/01 09:21:31;;;;;;;1.20;0.80;;;;;;;-145.06;24.23;60892.56;4865109;28;20105;-88
2022/01/01 09:24:11;;;;;;;1.52;0.70;;;;;;;-145.06;24.23;60892.56;4852871;28;20017;-89
2022/01/01 09:26:50;;;;;;;1.23;0.70;;;;;;;-145.06;24.23;60892.56;4854419;28;20036;-88
2022/01/01 09:29:29;;;;;;;1.17;0.80;;;;;;;-145.06;24.23;60892.56;4853076;28;20037;-89
2022/01/01 09:32:10;;;;;;;1.65;0.80;;;;;;;187.52;24.23;60892.56;4864833;28;20116;-89
2022/01/01 09:34:49;;;;;;;1.05;0.73;;;;;;;-145.06;24.23;60892.56;4848814;28;20478;-88
2022/01/01 09:37:29;;;;;;;2.80;0.77;;;;;;;-145.06;24.23;60892.56;4857832;28;20029;-87
2022/01/01 09:40:09;;;;;;;1.60;0.80;;;;;;;14.58;24.23;60892.56;4856866;28;20727;-88
2022/01/01 09:42:50;;;;;;;1.55;0.70;;;;;;;-145.06;24.23;60892.56;4858106;28;20025;-88
2022/01/01 09:45:30;;;;;;;1.88;0.90;;;;;;;-145.06;24.23;60892.56;4852561;28;20120;-89
2022/01/01 09:48:09;;;;;;;0.70;0.60;;;;;;;-145.06;24.23;60892.56;4846452;28;20111;-88
2022/01/01 09:50:49;;;;;;;2.40;0.90;;;;;;;-145.06;24.23;60892.56;4860901;28;20036;-88
2022/01/01 09:53:30;;;;;;;0.82;0.63;;;;;;;14.34;24.23;60892.56;4855011;28;20040;-87
2022/01/01 09:56:09;;;;;;;0.70;0.60;;;;;;;14.29;24.23;60892.56;4852278;28;20036;-88
2022/01/01 09:58:48;;;;;;;1.10;0.82;;;;;;;14.33;24.23;60892.56;4858362;28;20025;-88
2022/01/01 10:01:27;;;;;;;1.13;0.70;;;;;;;14.42;24.23;60892.56;4879021;28;20041;-88
2022/01/01 10:04:14;;;;;;;1.40;0.60;;;;;;;-145.06;24.23;60892.56;4865952;28;20017;-89
2022/01/01 10:07:03;;;;;;;1.10;0.60;;;;;;;14.43;24.23;60892.56;4855074;28;20033;-88
2022/01/01 10:09:46;;;;;;;1.05;0.70;;;;;;;14.47;24.23;60892.56;4855853;28;20040;-89
2022/01/01 10:12:40;;;;;;;1.15;0.68;;;;;;;14.50;24.23;60892.56;4849918;28;20107;-88
2022/01/01 10:15:19;;;;;;;1.38;0.80;;;;;;;-145.06;24.23;60892.56;4862968;28;20067;-88
2022/01/01 10:18:06;;;;;;;1.33;0.90;;;;;;;-145.06;24.23;60892.56;4863107;28;20037;-87
2022/01/01 10:20:45;;;;;;;0.90;0.70;;;;;;;14.64;24.23;60892.56;4851624;28;20032;-87
2022/01/01 10:23:29;;;;;;;0.98;0.70;;;;;;;-145.06;24.23;60892.56;4856388;28;20029;-88
2022/01/01 10:29:09;;;;;;;0.75;0.70;;;;;;;-145.06;24.23;60892.56;4862271;28;20367;-89
2022/01/01 10:32:01;;;;;;;0.50;0.50;;;;;;;14.79;24.23;60892.56;4852795;28;20467;-89
2022/01/01 10:34:45;;;;;;;2.33;0.60;;;;;;;-145.06;24.23;60892.56;4869263;28;20042;-88
2022/01/01 10:37:28;;;;;;;1.42;0.73;;;;;;;-145.06;24.23;60892.56;4849816;28;20037;-88
2022/01/01 10:40:08;;;;;;;1.60;0.80;;;;;;;-145.06;24.23;60892.56;4868737;28;20487;-89
2022/01/01 10:42:50;;;;;;;1.70;0.70;;;;;;;-145.06;24.23;60892.56;4850476;28;20441;-88
2022/01/01 10:45:31;;;;;;;0.82;0.70;;;;;;;14.88;24.23;60892.56;4855292;28;20041;-88
2022/01/01 10:48:17;;;;;;;2.33;1.00;;;;;;;-145.06;24.23;60892.56;4855309;28;20115;-88
2022/01/01 10:50:59;;;;;;;0.70;0.55;;;;;;;-145.06;24.23;60892.56;4851672;28;20029;-87
2022/01/01 10:53:41;;;;;;;0.93;0.70;;;;;;;-145.06;24.23;60892.56;4864171;28;20033;-88
2022/01/01 10:56:23;;;;;;;1.33;0.73;;;;;;;-145.06;24.23;60892.56;4853581;28;20478;-88
2022/01/01 10:59:05;;;;;;;0.80;0.60;;;;;;;-145.06;24.23;60892.56;4864432;28;20057;-89
2022/01/01 11:01:48;;;;;;;1.00;0.68;;;;;;;-145.06;24.23;60892.56;4845085;28;20029;-89
2022/01/01 11:04:32;;;;;;;0.77;0.57;;;;;;;-145.06;24.23;60892.56;4854764;28;20724;-88
2022/01/01 11:07:11;;;;;;;0.70;0.57;;;;;;;-145.06;24.23;60892.56;4870617;28;20029;-86
2022/01/01 11:09:53;;;;;;;0.50;0.50;;;;;;;-145.06;24.23;60892.56;4855297;28;20029;-86
2022/01/01 11:12:33;;;;;;;0.70;0.60;;;;;;;-145.06;24.23;60892.56;4869743;28;20032;-86
2022/01/01 11:15:16;;;;;;;0.93;0.60;;;;;;;-145.06;24.23;60892.56;4861757;28;20037;-85
2022/01/01 11:17:56;;;;;;;0.60;0.60;;;;;;;-145.06;24.23;60892.56;4865892;28;20378;-86
2022/01/01 11:20:36;;;;;;;1.75;0.70;;;;;;;-145.06;24.23;60892.56;4850317;28;20474;-89
2022/01/01 11:23:27;;;;;;;0.70;0.60;;;;;;;-145.06;24.23;60892.56;4853498;28;20052;-87
2022/01/01 11:26:08;;;;;;;1.27;0.90;;;;;;;-145.06;24.23;60892.56;4866765;28;20037;-88
2022/01/01 11:28:47;;;;;;;0.85;0.50;;;;;;;-145.06;24.23;60892.56;4856836;28;20033;-86
2022/01/01 11:31:26;;;;;;;0.90;0.50;;;;;;;-145.06;24.23;60892.56;4860309;28;20037;-86
2022/01/01 11:34:07;;;;;;;0.93;0.60;;;;;;;-145.06;24.23;60892.56;4865033;28;20272;-86
2022/01/01 11:36:46;;;;;;;0.90;0.80;;;;;;;-145.06;24.23;60892.56;4852070;28;20042;-89
2022/01/01 11:39:26;;;;;;;0.70;0.60;;;;;;;-145.06;24.23;60892.56;4850468;28;20089;-88
2022/01/01 11:42:10;;;;;;;0.40;0.40;;;;;;;-145.06;24.23;60892.56;4847086;28;20029;-89
2022/01/01 11:44:54;;;;;;;0.93;0.60;;;;;;;-145.06;24.23;60892.56;4855888;28;20037;-89
2022/01/01 11:47:33;;;;;;;1.08;0.68;;;;;;;-145.06;24.23;60892.56;4851827;28;20041;-88
2022/01/01 11:50:42;;;;;;;0.57;0.50;;;;;;;-145.06;24.23;60892.56;4866817;28;20037;-89
2022/01/01 11:53:35;;;;;;;0.65;0.65;;;;;;;-145.06;24.23;60892.56;4851824;28;20041;-89
2022/01/01 11:56:14;;;;;;;0.93;0.50;;;;;;;-145.06;24.23;60892.56;4865398;28;20700;-89
2022/01/01 11:58:53;;;;;;;0.47;0.47;;;;;;;-145.06;24.23;60892.56;4848189;28;20064;-89
2022/01/01 12:01:40;;;;;;;1.33;0.80;;;;;;;-145.06;24.23;60892.56;4845104;28;20275;-89
2022/01/01 12:04:31;;;;;;;0.90;0.50;;;;;;;-145.06;24.23;60892.56;4848891;28;20514;-88
2022/01/01 12:07:16;;;;;;;0.70;0.50;;;;;;;17.18;24.23;60892.56;4849226;28;20041;-88
2022/01/01 12:10:01;;;;;;;0.95;0.60;;;;;;;-145.06;24.23;60892.56;4851537;28;20036;-88
2022/01/01 12:12:49;;;;;;;0.63;0.60;;;;;;;-145.06;24.23;60892.56;4845743;28;20028;-89
2022/01/01 12:15:36;;;;;;;0.40;0.40;;;;;;;-145.06;24.23;60892.56;4845988;28;20040;-89
2022/01/01 12:18:18;;;;;;;0.50;0.50;;;;;;;-145.06;24.23;60892.56;4853841;28;20060;-87
2022/01/01 12:21:02;;;;;;;1.02;0.60;;;;;;;-145.06;24.23;60892.56;4849088;28;20714;-87
2022/01/01 12:23:48;;;;;;;0.40;0.40;;;;;;;-145.06;24.23;60892.56;4848263;28;20565;-88
2022/01/01 12:26:34;;;;;;;0.70;0.50;;;;;;;-145.06;24.23;60892.56;4848469;28;20041;-87